KAFO

Details ICAO KAFO
Name AFTON MUNI
Region United States
Timezone America/Denver (UTC-6.0)
Plans Departing 9
Arriving 5
Stats Elevation 6,221 ft / 1,896 m (AMSL)
Location 42.708770° -110.942168°
Runways 1
Magnetic Variation 11.299° E
Sunrise 2018-05-20 11:57:57 UTC / 2018-05-20 05:57:57 Local
Sunset 2018-05-21 02:45:32 UTC / 2018-05-20 20:45:32 Local
Advertisement - Login to hide

Runways

ID Width Length Bearing (true) Bearing (mag) Surface Threshold Offset Overrun Length
16 75 ft / 23 m 7,030 ft / 2,143 m 180.20° 168.90° Asphalt 0 ft / 0 m 0 ft / 0 m
34 75 ft / 23 m 7,030 ft / 2,143 m 0.20° 348.90° Asphalt 0 ft / 0 m 0 ft / 0 m

Map

Weather


0- 5 10 15 20 25 30 35+ Temperature / ° C

Clouds and Precipitation
Forecast for 2018-05-20 18:00 UTC. Updated an hour ago

Ground ~20,000 ft ~40,000 ft Winds

METAR

KAFO 201615Z AUTO 35003KT 10SM OVC090 11/04 A3011 RMK AO2

TAF

Not found

Frequencies

Recorded 119.02 MHz AWOS 3
Unicom 122.80 MHz CTAF/UNICOM
Warning: Do not use this data for real-world aviation or navigation. No guarantee of current accuracy is given.